• Join FlightAware (Why Join?)
  • Login
  • US Flag 
03:35AM EDT


 

Airport Tracker/Info


-or-


 

Live Flight TrackerFlight Track Log ✈ BOE501 ✈ 22-Feb-2010 ✈ KPAE - KMWH

Flight Track Log - Related Links

Times and Time Zones

All times are in EST time to prevent confusion due to time zone crossing. See the BOE501 flight status page for this flight to view local times or setup timezone preferences in your user account.

Time Position Orientation Groundspeed Altitude Reporting Facility
EST Latitude Longitude Course Direction KTS MPH feet Rate Location/Type
07:13PM 47.8772 -122.2840 185° South 220 253 2,300  Level Seattle Center
07:13PM 47.8606 -122.2860 157° South 169 194 2,700 2,280 Climbing Seattle Center
07:14PM 47.8217 -122.2620 155° Southeast 215 247 4,600 1,920 Climbing Seattle Center
07:14PM 47.7989 -122.2460 140° Southeast 226 260 4,900 480 Climbing Seattle Center
07:15PM 47.7706 -122.2110 145° Southeast 215 247 5,100 1,500 Climbing Seattle Center
07:16PM 47.7156 -122.1530 145° Southeast 240 276 7,300 2,220 Climbing Seattle Center
07:17PM 47.6606 -122.0950 136° Southeast 265 305 9,600 2,640 Climbing Seattle Center
07:18PM 47.6081 -122.0190 136° Southeast 265 305 12,600 2,580 Climbing Seattle Center
07:19PM 47.5553 -121.9430 129° Southeast 265 305 14,800 1,200 Climbing Seattle Center
07:20PM 47.5047 -121.8520 132° Southeast 270 311 15,000 120 Climbing Seattle Center
07:21PM 47.4503 -121.7640 127° Southeast 281 323 15,100  Climbing Seattle Center
07:22PM 47.4039 -121.6730 86° East 281 323 15,100 180 Level Seattle Center
07:23PM 47.4097 -121.5540 80° East 260 299 15,500 900 Climbing Seattle Center
07:24PM 47.4242 -121.4320 90° East 271 312 16,900 720 Climbing Seattle Center
07:25PM 47.4236 -121.3060 92° East 286 329 17,000 -60 Climbing Seattle Center
07:26PM 47.4211 -121.1800 92° East 294 338 16,800 -300 Descending Seattle Center
07:27PM 47.4183 -121.0580 96° East 301 346 16,500 -60 Descending Seattle Center
07:28PM 47.4092 -120.9350 110° East 301 346 16,700 60 Climbing Seattle Center
07:29PM 47.3831 -120.8300 92° East 296 341 16,700 -180 Level Seattle Center
07:30PM 47.3800 -120.7070 70° East 296 341 16,400 -180 Descending Seattle Center
07:31PM 47.4078 -120.5920 72° East 291 335 16,400  Level Seattle Center
07:32PM 47.4336 -120.4760 64° Northeast 291 335 16,500 120 Climbing Seattle Center
07:33PM 47.4694 -120.3660 65° Northeast 296 341 16,700 -60 Climbing Seattle Center
07:34PM 47.5053 -120.2520 77° East 296 341 16,400 -240 Descending Seattle Center
07:35PM 47.5225 -120.1390 61° Northeast 289 333 16,300 -180 Descending Seattle Center
07:36PM 47.5622 -120.0320 48° Northeast 284 327 16,100 -120 Descending Seattle Center
07:37PM 47.6144 -119.9460 50° Northeast 277 319 16,100 120 Level Seattle Center
07:38PM 47.6664 -119.8530 51° Northeast 283 326 16,400 120 Climbing Seattle Center
07:39PM 47.7206 -119.7550 51° Northeast 288 331 16,400 -120 Level Seattle Center
07:40PM 47.7706 -119.6620 56° Northeast 288 331 16,200 -60 Descending Seattle Center
07:41PM 47.8161 -119.5600 61° Northeast 288 331 16,300 180 Climbing Seattle Center
07:42PM 47.8553 -119.4550 67° East 293 337 16,600 120 Climbing Seattle Center
07:43PM 47.8883 -119.3410 67° East 288 331 16,600  Level Seattle Center
07:44PM 47.9211 -119.2230 71° East 288 331 16,700 -120 Climbing Seattle Center
07:45PM 47.9475 -119.1050 76° East 294 338 16,400 -360 Descending Seattle Center
07:46PM 47.9675 -118.9840 91° East 294 338 16,000 -120 Descending Seattle Center
07:47PM 47.9667 -118.8630 110° East 294 338 16,200 120 Climbing Seattle Center
07:48PM 47.9386 -118.7460 108° East 289 333 16,300  Climbing Seattle Center
07:49PM 47.9125 -118.6290 111° Southeast 294 338 16,200  Descending Seattle Center
07:50PM 47.8822 -118.5120 203° Southwest 300 345 16,300 60 Climbing Seattle Center
07:51PM 47.8142 -118.5540 284° West 216 249 16,400  Climbing Seattle Center
07:52PM 47.8339 -118.6740 295° West 135 155 16,400 60 Level Seattle Center
07:53PM 47.8683 -118.7840 280° West 213 245 16,600  Climbing Seattle Center
07:54PM 47.8817 -118.8980 295° West 256 295 16,500  Descending Seattle Center
07:55PM 47.9156 -119.0090 305° West 279 321 16,700 60 Climbing Seattle Center
07:56PM 47.9600 -119.1050 296° West 284 327 16,700 -60 Level Seattle Center
07:57PM 47.9958 -119.2130 292° West 289 333 16,600 -120 Descending Seattle Center
07:58PM 48.0256 -119.3240 300° West 284 327 16,500 -60 Descending Seattle Center
07:59PM 48.0653 -119.4260 290° West 284 327 16,500  Level Seattle Center
08:00PM 48.0928 -119.5370 288° West 284 327 16,500  Level Seattle Center
08:01PM 48.1178 -119.6520 229° Southwest 284 327 16,500  Level Seattle Center
08:02PM 48.0658 -119.7420 217° Southwest 251 289 16,500  Level Seattle Center
08:03PM 48.0014 -119.8140 221° Southwest 265 305 16,500  Level Seattle Center
08:04PM 47.9389 -119.8940 222° Southwest 278 320 16,500  Level Seattle Center
08:05PM 47.8786 -119.9740 223° Southwest 290 334 16,500  Level Seattle Center
08:06PM 47.8200 -120.0540 217° Southwest 295 339 16,500  Level Seattle Center
08:07PM 47.7556 -120.1250 208° Southwest 295 339 16,500  Level Seattle Center
08:08PM 47.6825 -120.1830 202° Southwest 290 334 16,500  Level Seattle Center
08:09PM 47.6053 -120.2290 145° Southeast 295 339 16,500  Level Seattle Center
08:10PM 47.5514 -120.1730 72° East 267 307 16,500  Level Seattle Center
08:11PM 47.5789 -120.0500 74° East 185 213 16,500  Level Seattle Center
08:12PM 47.6019 -119.9300 81° East 236 272 16,500  Level Seattle Center
08:13PM 47.6144 -119.8100 81° East 272 313 16,500  Level Seattle Center
08:14PM 47.6269 -119.6900 83° East 290 334 16,500 60 Level Seattle Center
08:15PM 47.6372 -119.5670 87° East 296 341 16,700 1,260 Climbing Seattle Center
08:16PM 47.6411 -119.4440 85° East 296 341 19,100 2,460 Climbing Seattle Center
08:17PM 47.6489 -119.3150 79° East 296 341 21,700 2,400 Climbing Seattle Center
08:18PM 47.6669 -119.1790 76° East 317 365 23,900 1,140 Climbing Seattle Center
08:19PM 47.6892 -119.0430 81° East 330 380 24,000  Climbing Seattle Center
08:20PM 47.7047 -118.9040 78° East 337 388 23,900 -120 Descending Seattle Center
08:21PM 47.7244 -118.7650 51° Northeast 337 388 23,800  Descending Seattle Center
08:22PM 47.7778 -118.6660 318° Northwest 323 372 24,000 120 Climbing Seattle Center
08:23PM 47.8450 -118.7570 264° West 206 237 24,100 -60 Climbing Seattle Center
08:24PM 47.8358 -118.8930 250° West 191 220 23,900 -120 Descending Seattle Center
08:25PM 47.8033 -119.0260 247° West 263 303 23,900 -120 Level Seattle Center
08:26PM 47.7667 -119.1530 252° West 308 354 23,700  Descending Seattle Center
08:27PM 47.7383 -119.2800 250° West 319 367 23,900 300 Climbing Seattle Center
08:28PM 47.7056 -119.4100 248° West 329 379 24,300 120 Climbing Seattle Center
08:29PM 47.6703 -119.5390 253° West 329 379 24,200 -300 Descending Seattle Center
08:30PM 47.6436 -119.6690 282° West 334 384 23,700 -1,380 Descending Seattle Center
08:31PM 47.6603 -119.7890 339° North 302 348 21,500 -2,340 Descending Seattle Center
08:32PM 47.7372 -119.8320 27° Northeast 256 295 19,100 -2,280 Descending Seattle Center
08:33PM 47.8100 -119.7760 82° East 223 257 17,000 -2,520 Descending Seattle Center
08:34PM 47.8203 -119.6620 152° Southeast 194 223 14,100 -2,520 Descending Seattle Center
08:35PM 47.7517 -119.6070 140° Southeast 164 189 12,000 -2,280 Descending Seattle Center
08:35PM 47.7244 -119.5730 174° South 253 291 10,900 -1,920 Descending Seattle Center
08:36PM 47.6850 -119.5670 154° Southeast 219 252 10,100 -900 Descending Seattle Center
08:37PM 47.6267 -119.5240 157° South 229 264 9,500 -1,020 Descending Seattle Center
08:38PM 47.5747 -119.4910 162° South 223 257 8,100 -1,440 Descending Seattle Center
08:39PM 47.5225 -119.4660 163° South 211 243 6,700 -1,320 Descending Seattle Center
08:40PM 47.4683 -119.4420 162° South 206 237 5,500 -1,020 Descending Seattle Center
08:41PM 47.4183 -119.4180 161° South 206 237 4,700 -840 Descending Seattle Center
08:42PM 47.3703 -119.3940 161° South 201 231 3,900 -720 Descending Seattle Center
08:43PM 47.3286 -119.3730 164° South 185 213 3,300 -660 Descending Seattle Center
08:43PM 47.2911 -119.3570 166° South 164 189 2,700 -900 Descending Seattle Center
08:45PM 47.2453 -119.3400 162° South 157 181 1,600 -780 Descending Seattle Center
08:46PM 47.2078 -119.3220 166° South 152 175 1,100 10,680 Descending Seattle Center
08:47PM 47.1661 -119.3070 166° South 152 175 23,000 10,920 Climbing Seattle Center
08:48PM 47.1244 -119.2920 166° South 152 175 23,000  Level Seattle Center
08:49PM 47.0828 -119.2770 166° South 152 175 23,000  Level Seattle Center
08:50PM 47.0661 -119.2710 360° North 152 175 23,000  Level Seattle Center
08:51PM 47.0661 -119.2710 360° North 152 175 23,000  Level Seattle Center
08:52PM 47.0661 -119.2710 360° North 152 175 23,000  Level Seattle Center
08:53PM 47.0661 -119.2710 360° North 152 175 23,000  Level Seattle Center